.
WxDataArchive / Data Records for 2009-07-10
2009-07-09 July 2009 2009-07-11

Data Records for Friday, 10 July 2009

Time	Temp	Chill	HIndex	Humid	Dewpt	 Wind 	HiWind	WindDir	Rain 	Barom 
-----	----	-----	------	-----	-----	------	------	-------	-----	----- 
00:00	68.9	68.9	68.9	67	57.5	1	4	112	0.00	30.122 
00:05	68.8	68.8	68.8	68	57.8	1	4	112	0.00	30.122 
00:10	68.4	68.4	68.4	69	57.8	1	3	68	0.00	30.122 
00:15	68.3	68.3	68.3	69	57.7	0	2	68	0.00	30.123 
00:20	68.1	68.1	68.1	70	57.9	0	2	68	0.00	30.123 
00:25	67.8	67.8	67.8	70	57.6	0	1	68	0.00	30.123 
00:30	67.6	67.6	67.6	71	57.9	0	1	68	0.00	30.133 
00:35	67.4	67.4	67.4	72	58.1	0	0	---	0.00	30.133 
00:40	67.3	67.3	67.3	73	58.3	0	2	112	0.00	30.133 
00:45	67.3	67.3	67.3	73	58.3	0	2	112	0.00	30.138 
00:50	67.4	67.4	67.4	73	58.4	0	2	112	0.00	30.138 
00:55	67.4	67.4	67.4	73	58.4	1	3	112	0.00	30.138 
01:00	67.4	67.4	67.4	73	58.4	1	3	112	0.00	30.134 
01:05	67.4	67.4	67.4	73	58.4	0	2	112	0.00	30.134 
01:10	67.3	67.3	67.3	74	58.7	1	3	112	0.00	30.134 
01:15	67.1	67.1	67.1	74	58.5	0	2	112	0.00	30.126 
01:20	66.9	66.9	66.9	75	58.7	1	2	112	0.00	30.126 
01:25	66.8	66.8	66.8	75	58.6	1	4	90	0.00	30.126 
01:30	66.6	66.6	66.6	76	58.8	0	2	90	0.00	30.125 
01:35	66.4	66.4	66.4	76	58.6	0	2	90	0.00	30.125 
01:40	66.3	66.3	66.3	77	58.9	0	2	90	0.00	30.125 
01:45	66.0	66.0	66.0	77	58.6	0	1	90	0.00	30.127 
01:50	65.8	65.8	65.8	78	58.7	0	2	90	0.00	30.127 
01:55	65.6	65.6	65.6	78	58.5	0	0	---	0.00	30.127 
02:00	65.5	65.5	65.5	78	58.5	0	1	90	0.00	30.138 
02:05	65.3	65.3	65.3	79	58.6	0	2	90	0.00	30.138 
02:10	65.2	65.2	65.2	79	58.5	0	1	90	0.00	30.138 
02:15	65.2	65.2	65.2	80	58.9	0	1	90	0.00	30.126 
02:20	65.0	65.0	65.0	80	58.7	0	2	90	0.00	30.126 
02:25	65.0	65.0	65.0	80	58.7	0	2	90	0.00	30.126 
02:30	64.8	64.8	64.8	80	58.5	0	1	90	0.00	30.130 
02:35	64.8	64.8	64.8	81	58.8	0	1	90	0.00	30.130 
02:40	64.7	64.7	64.7	81	58.7	0	1	90	0.00	30.130 
02:45	64.5	64.5	64.5	81	58.5	0	1	90	0.00	30.124 
02:50	64.5	64.5	64.5	81	58.5	0	0	---	0.00	30.124 
02:55	64.3	64.3	64.3	82	58.7	0	1	90	0.00	30.124 
03:00	64.2	64.2	64.2	82	58.6	0	1	90	0.00	30.127 
03:05	64.2	64.2	64.2	82	58.6	0	1	90	0.00	30.127 
03:10	64.0	64.0	64.0	82	58.4	0	0	---	0.00	30.127 
03:15	63.9	63.9	63.9	82	58.3	0	0	---	0.00	30.129 
03:20	63.5	63.5	63.5	83	58.2	0	0	---	0.00	30.129 
03:25	63.4	63.4	63.4	83	58.1	0	0	---	0.00	30.129 
03:30	63.1	63.1	63.1	84	58.2	0	0	---	0.00	30.142 
03:35	62.9	62.9	62.9	84	58.0	0	0	---	0.00	30.142 
03:40	62.6	62.6	62.6	85	58.0	0	0	---	0.00	30.142 
03:45	62.4	62.4	62.4	85	57.8	0	0	---	0.00	30.142 
03:50	62.3	62.3	62.3	85	57.7	0	0	---	0.00	30.142 
03:55	62.1	62.1	62.1	86	57.9	0	0	---	0.00	30.142 
04:00	62.0	62.0	62.0	86	57.8	0	0	---	0.00	30.143 
04:05	61.8	61.8	61.8	87	57.9	0	0	---	0.00	30.143 
04:10	61.8	61.8	61.8	87	57.9	0	0	---	0.00	30.143 
04:15	61.6	61.6	61.6	88	58.0	0	0	---	0.00	30.141 
04:20	61.5	61.5	61.5	88	57.9	0	0	---	0.00	30.141 
04:25	61.3	61.3	61.3	88	57.7	0	0	---	0.00	30.141 
04:30	61.2	61.2	61.2	88	57.6	0	0	---	0.00	30.143 
04:35	61.0	61.0	61.0	88	57.4	0	0	---	0.00	30.143 
04:40	60.9	60.9	60.9	88	57.3	0	0	---	0.00	30.143 
04:45	61.0	61.0	61.0	89	57.7	0	0	---	0.00	30.144 
04:50	61.2	61.2	61.2	89	57.9	0	1	90	0.00	30.144 
04:55	61.2	61.2	61.2	89	57.9	0	0	---	0.00	30.144 
05:00	61.3	61.3	61.3	89	58.0	0	0	---	0.00	30.134 
05:05	61.3	61.3	61.3	89	58.0	0	1	90	0.00	30.134 
05:10	61.3	61.3	61.3	89	58.0	0	0	---	0.00	30.134 
05:15	61.3	61.3	61.3	88	57.7	0	0	---	0.00	30.137 
05:20	61.2	61.2	61.2	89	57.9	0	1	90	0.00	30.137 
05:25	61.2	61.2	61.2	89	57.9	0	1	90	0.00	30.137 
05:30	61.2	61.2	61.2	89	57.9	0	0	---	0.00	30.133 
05:35	61.0	61.0	61.0	89	57.7	0	0	---	0.00	30.133 
05:40	61.0	61.0	61.0	89	57.7	0	1	90	0.00	30.133 
05:45	60.9	60.9	60.9	89	57.6	0	0	---	0.00	30.128 
05:50	60.9	60.9	60.9	89	57.6	0	0	---	0.00	30.128 
05:55	60.7	60.7	60.7	89	57.4	0	0	---	0.00	30.128 
06:00	60.5	60.5	60.5	89	57.2	0	0	---	0.00	30.127 
06:05	60.4	60.4	60.4	89	57.1	0	0	---	0.00	30.127 
06:10	60.2	60.2	60.2	89	56.9	0	0	---	0.00	30.127 
06:15	60.1	60.1	60.1	90	57.2	0	0	---	0.00	30.128 
06:20	60.1	60.1	60.1	90	57.2	0	0	---	0.00	30.128 
06:25	59.9	59.9	59.9	90	57.0	0	0	---	0.00	30.128 
06:30	59.8	59.8	59.8	90	56.9	0	0	---	0.00	30.131 
06:35	59.8	59.8	59.8	91	57.2	0	0	---	0.00	30.131 
06:40	59.8	59.8	59.8	91	57.2	0	1	90	0.00	30.131 
06:45	59.8	59.8	59.8	91	57.2	0	0	---	0.00	30.129 
06:50	59.8	59.8	59.8	92	57.5	0	0	---	0.00	30.129 
06:55	59.9	59.9	59.9	92	57.6	0	1	112	0.00	30.129 
07:00	60.1	60.1	60.1	92	57.8	0	1	112	0.00	30.129 
07:05	60.1	60.1	60.1	92	57.8	0	0	---	0.00	30.129 
07:10	60.2	60.2	60.2	92	57.9	0	0	---	0.00	30.129 
07:15	60.2	60.2	60.2	92	57.9	0	0	---	0.00	30.140 
07:20	60.4	60.4	60.4	92	58.1	0	0	---	0.00	30.140 
07:25	60.7	60.7	60.7	92	58.4	0	0	---	0.00	30.140 
07:30	61.0	61.0	61.0	91	58.4	0	1	112	0.00	30.143 
07:35	61.5	61.5	61.5	90	58.5	0	0	---	0.00	30.143 
07:40	61.8	61.8	61.8	89	58.5	0	0	---	0.00	30.143 
07:45	62.3	62.3	62.3	88	58.7	0	1	112	0.00	30.143 
07:50	62.6	62.6	62.6	87	58.7	0	1	112	0.00	30.143 
07:55	63.1	63.1	63.1	87	59.2	0	0	---	0.00	30.143 
08:00	63.4	63.4	63.4	85	58.8	0	1	112	0.00	30.144 
08:05	63.9	63.9	63.9	84	59.0	0	3	112	0.00	30.144 
08:10	64.3	64.3	64.3	82	58.7	0	2	112	0.00	30.144 
08:15	65.2	65.2	65.2	81	59.2	0	1	112	0.00	30.147 
08:20	65.8	65.8	65.8	78	58.7	0	1	112	0.00	30.147 
08:25	66.4	66.4	66.4	77	59.0	0	1	112	0.00	30.147 
08:30	66.9	66.9	66.9	76	59.1	1	2	112	0.00	30.144 
08:35	67.1	67.1	67.1	75	58.9	0	2	112	0.00	30.144 
08:40	67.3	67.3	67.3	75	59.1	0	1	112	0.00	30.144 
08:45	67.6	67.6	67.6	74	59.0	0	2	112	0.00	30.142 
08:50	67.8	67.8	67.8	73	58.8	0	2	112	0.00	30.142 
08:55	68.1	68.1	68.1	72	58.7	0	2	112	0.00	30.142 
09:00	68.4	68.4	68.4	71	58.6	0	2	112	0.00	30.146 
09:05	69.4	69.4	69.4	70	59.2	0	2	112	0.00	30.146 
09:10	70.3	70.3	70.3	68	59.2	1	3	112	0.00	30.146 
09:15	70.6	70.6	70.6	67	59.1	1	3	68	0.00	30.142 
09:20	71.3	71.3	71.3	66	59.3	1	2	68	0.00	30.142 
09:25	71.8	71.8	71.8	65	59.4	1	4	68	0.00	30.142 
09:30	72.5	72.5	72.5	64	59.6	1	3	68	0.00	30.137 
09:35	73.0	73.0	73.0	64	60.1	2	4	68	0.00	30.137 
09:40	73.5	73.5	73.5	62	59.7	1	3	90	0.00	30.137 
09:45	74.4	74.4	74.4	62	60.5	1	3	90	0.00	30.139 
09:50	74.9	74.9	74.9	60	60.1	0	3	135	0.00	30.139 
09:55	75.1	75.1	77.4	61	60.7	1	3	135	0.00	30.139 
10:00	75.4	75.4	77.6	60	60.5	1	3	135	0.00	30.134 
10:05	75.4	75.4	77.6	60	60.5	1	4	90	0.00	30.134 
10:10	75.8	75.8	77.9	58	59.9	1	4	112	0.00	30.134 
10:15	76.5	76.5	78.4	58	60.6	1	3	135	0.00	30.132 
10:20	77.0	77.0	78.7	56	60.1	1	3	68	0.00	30.132 
10:25	77.6	77.6	79.2	58	61.6	0	1	112	0.00	30.132 
10:30	78.6	78.6	80.0	56	61.6	0	1	112	0.00	30.138 
10:35	79.2	79.2	80.4	54	61.1	1	4	112	0.00	30.138 
10:40	79.8	79.8	80.8	52	60.6	1	5	112	0.00	30.138 
10:45	80.1	80.1	81.2	53	61.4	1	5	90	0.00	30.135 
10:50	80.5	80.5	81.7	54	62.3	1	4	68	0.00	30.135 
10:55	80.9	80.9	81.9	52	61.6	1	3	248	0.00	30.135 
11:00	81.1	81.1	82.0	51	61.2	1	3	45	0.00	30.136 
11:05	81.2	81.2	82.1	51	61.3	1	3	90	0.00	30.136 
11:10	81.4	81.4	82.1	50	60.9	2	6	90	0.00	30.136 
11:15	81.6	81.6	82.6	52	62.2	1	4	68	0.00	30.132 
11:20	81.8	81.8	82.6	50	61.3	2	5	135	0.00	30.132 
11:25	82.2	82.2	83.0	50	61.7	2	5	90	0.00	30.132 
11:30	82.4	82.4	83.2	50	61.9	2	5	90	0.00	30.119 
11:35	82.8	82.8	83.5	49	61.7	2	5	112	0.00	30.119 
11:40	83.0	83.0	83.9	50	62.4	2	5	90	0.00	30.119 
11:45	83.2	83.2	84.3	51	63.2	1	4	135	0.00	30.117 
11:50	83.4	83.4	84.4	50	62.8	2	4	90	0.00	30.117 
11:55	83.8	83.8	84.9	50	63.1	1	4	90	0.00	30.117 
12:00	83.8	83.8	84.9	50	63.1	2	5	90	0.00	30.119 
12:05	83.8	83.8	84.9	50	63.1	1	4	292	0.00	30.119 
12:10	84.0	84.0	85.1	50	63.3	1	5	90	0.00	30.119 
12:15	84.1	84.1	85.7	52	64.5	2	6	112	0.00	30.119 
12:20	84.1	84.1	85.5	51	64.0	2	5	292	0.00	30.119 
12:25	84.7	84.7	85.8	49	63.4	2	5	90	0.00	30.119 
12:30	84.5	84.5	85.8	50	63.8	2	5	90	0.00	30.114 
12:35	84.9	84.9	85.8	48	63.0	1	5	315	0.00	30.114 
12:40	85.1	85.1	86.6	50	64.3	2	7	112	0.00	30.114 
12:45	84.7	84.7	86.3	51	64.5	1	4	22	0.00	30.103 
12:50	84.7	84.7	86.3	51	64.5	1	5	90	0.00	30.103 
12:55	84.9	84.9	86.3	50	64.2	1	6	68	0.00	30.103 
13:00	85.3	85.3	86.9	50	64.5	1	3	90	0.00	30.107 
13:05	85.3	85.3	87.1	51	65.1	1	5	248	0.00	30.107 
13:10	85.5	85.5	87.4	51	65.3	2	5	90	0.00	30.107 
13:15	85.5	85.5	87.4	51	65.3	1	4	90	0.00	30.115 
13:20	85.7	85.7	87.7	51	65.5	1	4	90	0.00	30.115 
13:25	85.7	85.7	87.4	50	64.9	1	5	270	0.00	30.115 
13:30	85.7	85.7	87.7	51	65.5	1	4	90	0.00	30.108 
13:35	85.9	85.9	87.7	50	65.1	1	4	68	0.00	30.108 
13:40	86.3	86.3	87.8	48	64.3	2	9	68	0.00	30.108 
13:45	86.1	86.1	87.5	48	64.1	1	3	248	0.00	30.095 
13:50	86.1	86.1	88.0	50	65.3	1	4	202	0.00	30.095 
13:55	86.3	86.3	87.5	47	63.7	2	7	270	0.00	30.095 
14:00	86.1	86.1	87.5	48	64.1	2	4	270	0.00	30.089 
14:05	85.9	85.9	87.5	49	64.5	1	3	270	0.00	30.089 
14:10	85.9	85.9	87.2	48	63.9	1	3	315	0.00	30.089 
14:15	86.1	86.1	88.0	50	65.3	1	2	270	0.00	30.084 
14:20	86.5	86.5	88.1	48	64.4	1	3	270	0.00	30.084 
14:25	86.7	86.7	88.3	48	64.6	1	3	90	0.00	30.084 
14:30	86.7	86.7	88.6	49	65.2	1	4	270	0.00	30.088 
14:35	86.3	86.3	88.0	49	64.9	1	5	248	0.00	30.088 
14:40	86.3	86.3	88.0	49	64.9	1	3	248	0.00	30.088 
14:45	86.3	86.3	87.8	48	64.3	1	3	270	0.00	30.091 
14:50	85.9	85.9	87.2	48	63.9	1	3	270	0.00	30.091 
14:55	85.7	85.7	87.4	50	64.9	1	2	225	0.00	30.091 
15:00	85.3	85.3	86.6	49	63.9	2	4	270	0.00	30.095 
15:05	85.1	85.1	86.4	49	63.8	2	4	270	0.00	30.095 
15:10	85.1	85.1	86.6	50	64.3	1	3	270	0.00	30.095 
15:15	85.3	85.3	86.9	50	64.5	1	3	248	0.00	30.095 
15:20	85.7	85.7	87.2	49	64.3	1	3	248	0.00	30.095 
15:25	85.9	85.9	87.5	49	64.5	1	3	248	0.00	30.095 
15:30	86.1	86.1	87.5	48	64.1	1	5	270	0.00	30.086 
15:35	86.1	86.1	87.5	48	64.1	0	2	270	0.00	30.086 
15:40	86.1	86.1	87.2	47	63.5	2	5	248	0.00	30.086 
15:45	86.5	86.5	87.5	46	63.2	2	4	270	0.00	30.080 
15:50	87.0	87.0	87.9	45	63.1	2	5	270	0.00	30.080 
15:55	87.2	87.2	88.5	46	63.9	1	3	270	0.00	30.080 
16:00	87.6	87.6	88.8	45	63.6	1	4	270	0.00	30.070 
16:05	88.0	88.0	89.0	44	63.3	1	3	270	0.00	30.070 
16:10	88.0	88.0	89.0	44	63.3	1	3	270	0.00	30.070 
16:15	87.8	87.8	88.8	44	63.1	2	5	270	0.00	30.062 
16:20	87.2	87.2	87.9	44	62.6	1	4	248	0.00	30.062 
16:25	86.5	86.5	86.7	43	61.3	2	5	248	0.00	30.062 
16:30	86.1	86.1	86.5	44	61.6	1	3	270	0.00	30.060 
16:35	85.9	85.9	86.7	46	62.7	1	4	270	0.00	30.060 
16:40	85.9	85.9	86.7	46	62.7	1	3	292	0.00	30.060 
16:45	85.9	85.9	87.2	48	63.9	0	1	292	0.00	30.060 
16:50	85.9	85.9	86.9	47	63.3	1	3	292	0.00	30.060 
16:55	85.7	85.7	86.4	46	62.5	2	3	270	0.00	30.060 
17:00	85.7	85.7	86.7	47	63.1	1	3	270	0.00	30.061 
17:05	85.5	85.5	86.4	47	62.9	2	3	270	0.00	30.061 
17:10	85.5	85.5	86.6	48	63.5	1	2	270	0.00	30.061 
17:15	85.5	85.5	86.6	48	63.5	1	2	270	0.00	30.051 
17:20	85.3	85.3	86.4	48	63.4	1	3	292	0.00	30.051 
17:25	85.3	85.3	86.4	48	63.4	1	3	292	0.00	30.051 
17:30	85.5	85.5	86.6	48	63.5	0	1	292	0.00	30.044 
17:35	85.7	85.7	86.9	48	63.7	0	3	90	0.00	30.044 
17:40	86.1	86.1	87.5	48	64.1	1	2	45	0.00	30.044 
17:45	86.1	86.1	87.8	49	64.7	0	3	68	0.00	30.031 
17:50	86.3	86.3	87.5	47	63.7	0	1	68	0.00	30.031 
17:55	86.5	86.5	87.5	46	63.2	0	1	68	0.00	30.031 
18:00	86.5	86.5	87.5	46	63.2	0	1	68	0.00	30.023 
18:05	86.3	86.3	87.0	45	62.4	1	3	68	0.00	30.023 
18:10	86.1	86.1	86.7	45	62.2	1	2	112	0.00	30.023 
18:15	85.5	85.5	86.2	46	62.3	1	7	90	0.00	30.023 
18:20	85.5	85.5	85.9	45	61.7	0	1	90	0.00	30.023 
18:25	85.5	85.5	85.7	44	61.1	0	1	90	0.00	30.023 
18:30	85.5	85.5	85.7	44	61.1	0	2	90	0.00	30.029 
18:35	85.3	85.3	85.7	45	61.5	0	2	90	0.00	30.029 
18:40	85.1	85.1	85.4	45	61.3	0	2	90	0.00	30.029 
18:45	84.7	84.7	85.0	45	61.0	0	1	90	0.00	30.045 
18:50	84.7	84.7	85.0	45	61.0	0	1	90	0.00	30.045 
18:55	84.3	84.3	84.5	45	60.6	0	2	90	0.00	30.045 
19:00	84.1	84.1	84.1	44	59.8	0	1	90	0.00	30.042 
19:05	84.1	84.1	84.1	44	59.8	0	1	90	0.00	30.042 
19:10	84.0	84.0	84.3	46	61.0	0	2	90	0.00	30.042 
19:15	84.0	84.0	84.3	46	61.0	1	2	90	0.00	30.050 
19:20	83.8	83.8	84.1	46	60.8	1	2	90	0.00	30.050 
19:25	83.8	83.8	84.1	46	60.8	0	1	90	0.00	30.050 
19:30	83.6	83.6	84.1	47	61.2	0	1	90	0.00	30.048 
19:35	83.4	83.4	83.8	47	61.0	0	1	90	0.00	30.048 
19:40	83.4	83.4	83.8	47	61.0	0	1	90	0.00	30.048 
19:45	83.4	83.4	84.0	48	61.6	0	0	---	0.00	30.045 
19:50	83.2	83.2	83.6	47	60.8	0	0	---	0.00	30.045 
19:55	83.2	83.2	84.0	49	62.0	0	0	---	0.00	30.045 
20:00	83.2	83.2	84.0	49	62.0	0	0	---	0.00	30.044 
20:05	83.2	83.2	84.0	49	62.0	0	1	90	0.00	30.044 
20:10	83.2	83.2	84.0	49	62.0	0	0	---	0.00	30.044 
20:15	83.2	83.2	84.1	50	62.6	0	0	---	0.00	30.045 
20:20	83.2	83.2	84.1	50	62.6	0	0	---	0.00	30.045 
20:25	83.2	83.2	84.1	50	62.6	0	0	---	0.00	30.045 
20:30	83.0	83.0	83.9	50	62.4	0	0	---	0.00	30.046 
20:35	82.8	82.8	83.8	51	62.8	0	0	---	0.00	30.046 
20:40	82.4	82.4	83.4	51	62.4	0	0	---	0.00	30.046 
20:45	82.2	82.2	83.5	53	63.3	0	0	---	0.00	30.054 
20:50	81.8	81.8	83.0	53	63.0	0	0	---	0.00	30.054 
20:55	81.4	81.4	82.7	54	63.1	0	0	---	0.00	30.054 
21:00	81.1	81.1	82.5	55	63.4	0	0	---	0.00	30.055 
21:05	80.5	80.5	81.9	56	63.3	0	0	---	0.00	30.055 
21:10	80.1	80.1	81.6	57	63.5	0	0	---	0.00	30.055 
21:15	79.8	79.8	81.4	58	63.7	0	0	---	0.00	30.052 
21:20	79.4	79.4	81.0	59	63.8	0	0	---	0.00	30.052 
21:25	79.2	79.2	80.9	60	64.1	0	0	---	0.00	30.052 
21:30	78.8	78.8	80.5	60	63.7	0	0	---	0.00	30.050 
21:35	78.3	78.3	80.0	61	63.7	0	1	90	0.00	30.050 
21:40	77.9	77.9	79.6	62	63.8	0	0	---	0.00	30.050 
21:45	77.6	77.6	79.4	62	63.5	0	0	---	0.00	30.055 
21:50	77.2	77.2	79.0	64	64.1	0	0	---	0.00	30.055 
21:55	76.7	76.7	78.5	64	63.6	0	0	---	0.00	30.055 
22:00	76.5	76.5	78.3	65	63.8	0	0	---	0.00	30.056 
22:05	76.1	76.1	77.9	66	63.9	0	0	---	0.00	30.056 
22:10	75.8	75.8	77.7	66	63.6	0	0	---	0.00	30.056 
22:15	75.6	75.6	77.4	67	63.9	0	0	---	0.00	30.055 
22:20	75.3	75.3	77.1	68	64.0	0	0	---	0.00	30.055 
22:25	75.1	75.1	76.9	69	64.2	0	0	---	0.00	30.055 
22:30	74.9	74.9	74.9	69	64.0	0	0	---	0.00	30.061 
22:35	74.7	74.7	74.7	70	64.2	0	0	---	0.00	30.061 
22:40	74.6	74.6	74.6	71	64.6	0	0	---	0.00	30.061 
22:45	74.4	74.4	74.4	71	64.4	0	0	---	0.00	30.064 
22:50	74.4	74.4	74.4	72	64.8	0	0	---	0.00	30.064 
22:55	74.2	74.2	74.2	72	64.6	0	0	---	0.00	30.064 
23:00	74.0	74.0	74.0	72	64.4	0	0	---	0.00	30.069 
23:05	73.9	73.9	73.9	73	64.7	0	0	---	0.00	30.069 
23:10	73.7	73.7	73.7	74	64.9	0	0	---	0.00	30.069 
23:15	73.5	73.5	73.5	74	64.7	0	0	---	0.00	30.066 
23:20	73.5	73.5	73.5	75	65.1	0	0	---	0.00	30.066 
23:25	73.3	73.3	73.3	76	65.3	0	0	---	0.00	30.066 
23:30	73.2	73.2	73.2	76	65.2	0	0	---	0.00	30.068 
23:35	73.0	73.0	73.0	77	65.3	0	0	---	0.00	30.068 
23:40	73.0	73.0	73.0	77	65.3	0	0	---	0.00	30.068 
23:45	73.2	73.2	73.2	78	65.9	0	2	90	0.00	30.068 
23:50	73.3	73.3	73.3	79	66.4	0	1	90	0.00	30.068 
23:55	73.7	73.7	73.7	79	66.8	0	1	90	0.00	30.068 

CoCoRaHS
IN-AL-39
A2 Web Hosting
Creative Commons License
GoDaddy
search engine by freefind advanced

loaded 2018-11-15 18:37:46 • last modified 2010-11-18 10:43:29
Privacy PolicyDisclaimer
• wx.awcolley.com is powered by PmWiki v.2002016 •
• all content (unless otherwise noted) © 2018 A W Colley